Terminal Aerodrome Forecast
Issued by NWS Shreveport, LA

Home | Current Version | Previous Version | Text Only | Print | Product List | Glossary On
Versions: 1 2 3 4 5 6 7 8 9 10 11 12 13 14 15 16 17 18
058
FTUS44 KSHV 232320
TAFSHV
TAF
KSHV 232320Z 2400/2424 29007KT P6SM BKN045
      TEMPO 2400/2404 SCT045
     FM240400 29005KT P6SM SKC
     FM241500 32006KT P6SM SKC
     FM241800 33007KT P6SM FEW045=

USA.gov is the U.S. government's official web portal to all federal, state and local government web resources and services.